Sparta, Canada
Current Conditions -  °F | °C
As of 1:00 PM on Thursday 23 Oct 2014 (Local Time) from CYXU Reporting Station
Few Clouds Few Clouds  
Wind Chill: 57°   Ceiling: Unl
Heat Index: 57°   Visibility: 15mi
Dew Point: 46°   Wind: 8mph
Humidity: 67%   Direction: 320°NW
Pressure: 30.16"   Gusts: NA
Location:  42.7°N, 81.08°W
Report Text: CYXU 231700Z 32007KT 15SM FEW025 14/08 A3016 RMK CF1 CF TR SLP218
Loading
Personal Weather Stations






























Interactive Weather Map
Tropical Storm Tracking
New forecast layout! Learn more

10-Day Weather Forecast

Advertisements
Track Severe Weather on mobile